Time;durP1;ratioP1;P1;durP2;ratioP2;P2;SDS_P1;SDS_P2;PMS_P1;PMS_P2;Temp;Humidity;BMP_temperature;BMP_pressure;BME280_temperature;BME280_humidity;BME280_pressure;Samples;Min_cycle;Max_cycle;Signal;HPM_P1;HPM_P2
2021/07/19 00:00:14;;;;;;;8.97;4.30;;;17.70;99.90;;;;;;5060673;28;20244;-65
2021/07/19 00:02:44;;;;;;;10.63;3.90;;;17.70;99.90;;;;;;5067580;28;20311;-65
2021/07/19 00:05:13;;;;;;;7.53;3.90;;;17.70;99.90;;;;;;5053122;28;20239;-65
2021/07/19 00:07:43;;;;;;;8.20;3.97;;;17.70;99.90;;;;;;5047082;28;20680;-65
2021/07/19 00:10:15;;;;;;;9.83;3.80;;;17.70;99.90;;;;;;5061725;28;20240;-66
2021/07/19 00:12:45;;;;;;;10.63;4.00;;;17.70;99.90;;;;;;5066918;28;20239;-66
2021/07/19 00:15:19;;;;;;;9.47;4.50;;;17.70;99.90;;;;;;5052607;28;20294;-65
2021/07/19 00:17:49;;;;;;;9.17;4.63;;;17.60;99.90;;;;;;5046778;28;20236;-65
2021/07/19 00:20:19;;;;;;;10.77;4.40;;;17.60;99.90;;;;;;5047195;28;20374;-65
2021/07/19 00:22:49;;;;;;;10.57;4.13;;;17.60;99.90;;;;;;5047163;28;20225;-65
2021/07/19 00:25:19;;;;;;;10.60;3.90;;;17.50;99.90;;;;;;5046725;28;20574;-65
2021/07/19 00:27:53;;;;;;;10.13;4.43;;;17.50;99.90;;;;;;5049026;28;20239;-66
2021/07/19 00:30:26;;;;;;;10.40;4.07;;;17.50;99.90;;;;;;5054230;28;20245;-65
2021/07/19 00:32:57;;;;;;;7.87;4.27;;;17.50;99.90;;;;;;5051246;28;20233;-65
2021/07/19 00:35:30;;;;;;;12.60;4.80;;;17.60;99.90;;;;;;5063743;28;20288;-65
2021/07/19 00:38:00;;;;;;;8.03;3.70;;;17.60;99.90;;;;;;5050817;28;20259;-65
2021/07/19 00:40:31;;;;;;;7.87;4.10;;;17.60;99.90;;;;;;5065842;28;20244;-66
2021/07/19 00:43:01;;;;;;;8.60;3.87;;;17.60;99.90;;;;;;5069688;28;20232;-65
2021/07/19 00:45:33;;;;;;;9.37;3.73;;;17.60;99.90;;;;;;5068878;28;20240;-65
2021/07/19 00:48:07;;;;;;;11.40;4.03;;;17.50;99.90;;;;;;5069172;28;20703;-66
2021/07/19 00:50:40;;;;;;;10.10;3.80;;;17.50;99.90;;;;;;5070289;28;20331;-65
2021/07/19 00:53:10;;;;;;;7.33;3.63;;;17.40;99.90;;;;;;5070885;28;20224;-66
2021/07/19 00:55:43;;;;;;;9.60;3.90;;;17.50;99.90;;;;;;5055347;28;20240;-65
2021/07/19 00:58:14;;;;;;;10.83;3.80;;;17.50;99.90;;;;;;5065822;28;20251;-65
2021/07/19 01:00:50;;;;;;;7.67;3.73;;;17.40;99.90;;;;;;5049983;28;20241;-66
2021/07/19 01:03:23;;;;;;;10.13;3.93;;;17.40;99.90;;;;;;5049169;28;20256;-66
2021/07/19 01:05:56;;;;;;;9.00;3.90;;;17.40;99.90;;;;;;5036595;28;20249;-65
2021/07/19 01:08:29;;;;;;;9.13;4.47;;;17.40;99.90;;;;;;5049081;28;20231;-65
2021/07/19 01:11:02;;;;;;;7.27;3.53;;;17.40;99.90;;;;;;5048587;28;20228;-66
2021/07/19 01:13:33;;;;;;;7.67;3.47;;;17.40;99.90;;;;;;5049080;28;20232;-65
2021/07/19 01:16:05;;;;;;;10.23;3.67;;;17.40;99.90;;;;;;5070364;28;20227;-66
2021/07/19 01:18:37;;;;;;;7.77;3.53;;;17.40;99.90;;;;;;5067447;28;20235;-66
2021/07/19 01:21:33;;;;;;;9.67;3.90;;;17.40;99.90;;;;;;5050399;28;20256;-66
2021/07/19 01:24:15;;;;;;;9.00;4.20;;;17.30;99.90;;;;;;5048352;28;20327;-66
2021/07/19 01:27:06;;;;;;;9.50;3.43;;;17.30;99.90;;;;;;5048854;28;20270;-66
2021/07/19 01:29:39;;;;;;;9.43;3.83;;;17.30;99.90;;;;;;5051468;28;20692;-66
2021/07/19 01:32:12;;;;;;;6.40;3.90;;;17.30;99.90;;;;;;5048896;28;20324;-66
2021/07/19 01:34:43;;;;;;;6.50;3.27;;;17.30;99.90;;;;;;5048219;28;20298;-66
2021/07/19 01:37:15;;;;;;;9.10;3.60;;;17.30;99.90;;;;;;5048297;28;20235;-66
2021/07/19 01:40:09;;;;;;;11.10;3.60;;;17.40;99.90;;;;;;5051947;28;20236;-66
2021/07/19 01:42:40;;;;;;;9.60;4.10;;;17.30;99.90;;;;;;5048468;28;20242;-65
2021/07/19 01:45:13;;;;;;;8.67;3.60;;;17.30;99.90;;;;;;5063870;28;20243;-65
2021/07/19 01:47:47;;;;;;;10.07;3.30;;;17.30;99.90;;;;;;5068490;28;20236;-65
2021/07/19 01:50:18;;;;;;;11.23;3.50;;;17.40;99.90;;;;;;5067972;28;20271;-66
2021/07/19 01:53:07;;;;;;;7.87;3.27;;;17.30;99.90;;;;;;5070070;28;20265;-65
2021/07/19 01:55:38;;;;;;;9.17;3.50;;;17.30;99.90;;;;;;5050021;28;20434;-66
2021/07/19 01:58:12;;;;;;;10.03;3.57;;;17.30;99.90;;;;;;5049871;28;20628;-65
2021/07/19 02:00:53;;;;;;;8.43;3.47;;;17.30;99.90;;;;;;5047667;28;20260;-65
2021/07/19 02:03:22;;;;;;;8.80;3.47;;;17.20;99.90;;;;;;5050086;28;20268;-65
2021/07/19 02:05:57;;;;;;;8.60;3.27;;;17.20;99.90;;;;;;5047079;28;20650;-65
2021/07/19 02:08:26;;;;;;;8.53;3.53;;;17.20;99.90;;;;;;5048027;28;20235;-65
2021/07/19 02:11:16;;;;;;;8.50;3.40;;;17.30;99.90;;;;;;5029483;28;20232;-66
2021/07/19 02:13:46;;;;;;;7.23;3.20;;;17.30;99.90;;;;;;5031423;28;20243;-65
2021/07/19 02:16:20;;;;;;;9.00;3.50;;;17.30;99.90;;;;;;5047267;28;20239;-66
2021/07/19 02:18:50;;;;;;;10.80;4.20;;;17.30;99.90;;;;;;5050319;28;20239;-65
2021/07/19 02:21:24;;;;;;;9.53;3.80;;;17.30;99.90;;;;;;5068042;28;20239;-66
2021/07/19 02:24:17;;;;;;;6.40;3.20;;;17.20;99.90;;;;;;5066175;28;20340;-65
2021/07/19 02:27:02;;;;;;;8.83;3.83;;;17.30;99.90;;;;;;5067159;28;20232;-66
2021/07/19 02:29:32;;;;;;;8.13;3.20;;;17.20;99.90;;;;;;5063057;28;20240;-66
2021/07/19 02:32:02;;;;;;;6.70;3.17;;;17.30;99.90;;;;;;5067487;28;20697;-65
2021/07/19 02:34:31;;;;;;;8.20;3.60;;;17.30;99.90;;;;;;5058153;28;20247;-66
2021/07/19 02:36:59;;;;;;;7.53;3.00;;;17.30;99.90;;;;;;5047017;28;20232;-65
2021/07/19 02:39:31;;;;;;;8.00;3.10;;;17.30;99.90;;;;;;5055232;28;20235;-65
2021/07/19 02:42:02;;;;;;;8.63;4.13;;;17.20;99.90;;;;;;5067357;28;20698;-65
2021/07/19 02:44:32;;;;;;;8.07;3.40;;;17.30;99.90;;;;;;5067191;28;20322;-65
2021/07/19 02:47:32;;;;;;;9.17;3.37;;;17.20;99.90;;;;;;5051948;28;20240;-66
2021/07/19 02:50:01;;;;;;;8.50;3.17;;;17.20;99.90;;;;;;5059895;28;20254;-66
2021/07/19 02:52:30;;;;;;;9.60;3.43;;;17.20;99.90;;;;;;5066922;28;21061;-65
2021/07/19 02:54:59;;;;;;;5.67;3.10;;;17.20;99.90;;;;;;5054366;28;20240;-65
2021/07/19 02:57:36;;;;;;;10.37;3.80;;;17.20;99.90;;;;;;5046205;28;20750;-65
2021/07/19 03:00:07;;;;;;;8.50;3.10;;;17.20;99.90;;;;;;5046652;28;20232;-65
2021/07/19 03:02:41;;;;;;;9.00;3.50;;;17.30;99.90;;;;;;5047906;28;20239;-66
2021/07/19 03:05:12;;;;;;;9.17;3.50;;;17.20;99.90;;;;;;5061482;28;20236;-65
2021/07/19 03:07:42;;;;;;;8.50;3.43;;;17.30;99.90;;;;;;5067167;28;20231;-66
2021/07/19 03:10:11;;;;;;;7.27;3.30;;;17.30;99.90;;;;;;5066956;28;20242;-66
2021/07/19 03:12:42;;;;;;;8.37;3.27;;;17.20;99.90;;;;;;5067457;28;20311;-66
2021/07/19 03:15:13;;;;;;;9.17;3.40;;;17.20;99.90;;;;;;5066326;28;20232;-66
2021/07/19 03:17:43;;;;;;;7.40;3.30;;;17.20;99.90;;;;;;5047634;28;20649;-65
2021/07/19 03:20:15;;;;;;;7.93;3.37;;;17.20;99.90;;;;;;5059536;28;20596;-65
2021/07/19 03:22:45;;;;;;;7.40;3.23;;;17.20;99.90;;;;;;5046496;28;20228;-66
2021/07/19 03:25:28;;;;;;;7.70;3.27;;;17.20;99.90;;;;;;5045501;28;20232;-65
2021/07/19 03:27:57;;;;;;;7.83;3.30;;;17.20;99.90;;;;;;5045983;28;20236;-65
2021/07/19 03:30:26;;;;;;;7.00;3.30;;;17.20;99.90;;;;;;5050822;28;20241;-65
2021/07/19 03:32:59;;;;;;;4.97;2.90;;;17.20;99.90;;;;;;5047638;28;20790;-66
2021/07/19 03:35:31;;;;;;;11.30;3.30;;;17.20;99.90;;;;;;5045533;28;20240;-65
2021/07/19 03:38:03;;;;;;;8.20;3.30;;;17.20;99.90;;;;;;5046001;28;20725;-66
2021/07/19 03:40:38;;;;;;;9.50;3.53;;;17.20;99.90;;;;;;5063731;28;20703;-66
2021/07/19 03:43:09;;;;;;;4.70;2.90;;;17.20;99.90;;;;;;5063224;28;20239;-66
2021/07/19 03:45:38;;;;;;;6.20;3.07;;;17.20;99.90;;;;;;5046792;28;20225;-65
2021/07/19 03:48:10;;;;;;;5.67;2.83;;;17.30;99.90;;;;;;5045980;28;20731;-66
2021/07/19 03:50:40;;;;;;;9.23;3.50;;;17.30;99.90;;;;;;5065128;28;20238;-66
2021/07/19 03:53:09;;;;;;;11.77;3.97;;;17.30;99.90;;;;;;5066125;28;20243;-65
2021/07/19 03:55:41;;;;;;;7.90;3.90;;;17.30;99.90;;;;;;5048352;28;20232;-66
2021/07/19 03:58:11;;;;;;;7.77;2.90;;;17.30;99.90;;;;;;5047045;28;20247;-66
2021/07/19 04:00:44;;;;;;;9.50;3.80;;;17.30;99.90;;;;;;5046803;28;20520;-65
2021/07/19 04:03:23;;;;;;;8.57;3.50;;;17.30;99.90;;;;;;5047114;28;20726;-65
2021/07/19 04:05:59;;;;;;;10.30;3.57;;;17.30;99.90;;;;;;5043661;28;20642;-66
2021/07/19 04:08:36;;;;;;;7.40;3.10;;;17.30;99.90;;;;;;5047274;28;20235;-66
2021/07/19 04:11:05;;;;;;;8.50;3.40;;;17.30;99.90;;;;;;5065597;28;20228;-66
2021/07/19 04:13:38;;;;;;;10.83;3.53;;;17.20;99.90;;;;;;5065459;28;20665;-66
2021/07/19 04:16:07;;;;;;;10.10;3.20;;;17.20;99.90;;;;;;5065541;28;20335;-66
2021/07/19 04:18:37;;;;;;;7.90;3.40;;;17.20;99.90;;;;;;5065457;28;20235;-66
2021/07/19 04:21:06;;;;;;;9.73;3.60;;;17.20;99.90;;;;;;5045611;28;20731;-66
2021/07/19 04:23:36;;;;;;;7.63;3.23;;;17.30;99.90;;;;;;5046326;28;20590;-65
2021/07/19 04:26:34;;;;;;;7.50;3.40;;;17.30;99.90;;;;;;5062097;28;20235;-65
2021/07/19 04:29:07;;;;;;;8.33;3.50;;;17.40;99.90;;;;;;5060882;28;20378;-66
2021/07/19 04:31:43;;;;;;;8.70;3.23;;;17.40;99.90;;;;;;5045464;28;20232;-66
2021/07/19 04:34:30;;;;;;;8.23;3.40;;;17.40;99.90;;;;;;5045573;28;20722;-66
2021/07/19 04:37:06;;;;;;;9.80;4.47;;;17.40;99.90;;;;;;5044390;28;20283;-66
2021/07/19 04:39:38;;;;;;;9.20;3.57;;;17.40;99.90;;;;;;5046769;28;20326;-66
2021/07/19 04:42:10;;;;;;;7.43;3.40;;;17.40;99.90;;;;;;5045719;28;20248;-66
2021/07/19 04:44:39;;;;;;;8.17;3.20;;;17.40;99.90;;;;;;5046431;28;20271;-66
2021/07/19 04:47:07;;;;;;;9.47;3.67;;;17.40;99.90;;;;;;5046400;28;20286;-66
2021/07/19 04:49:39;;;;;;;12.93;4.50;;;17.40;99.90;;;;;;5055209;28;20246;-65
2021/07/19 04:52:08;;;;;;;6.13;3.80;;;17.40;99.90;;;;;;5065765;28;20482;-66
2021/07/19 04:54:38;;;;;;;7.53;3.90;;;17.40;99.90;;;;;;5055131;28;20225;-66
2021/07/19 04:57:10;;;;;;;10.43;3.47;;;17.50;99.90;;;;;;5026892;28;20271;-66
2021/07/19 04:59:42;;;;;;;6.77;3.77;;;17.50;99.90;;;;;;5025515;28;20238;-66
2021/07/19 05:02:13;;;;;;;8.63;3.70;;;17.50;99.90;;;;;;5026837;28;20241;-66
2021/07/19 05:04:44;;;;;;;10.03;3.57;;;17.50;99.90;;;;;;5026360;28;20240;-66
2021/07/19 05:07:16;;;;;;;8.40;3.63;;;17.50;99.90;;;;;;5026654;28;20233;-67
2021/07/19 05:09:46;;;;;;;8.13;3.40;;;17.50;99.90;;;;;;5025915;28;20249;-66
2021/07/19 05:12:16;;;;;;;10.53;3.60;;;17.60;99.90;;;;;;5027218;28;20698;-66
2021/07/19 05:14:45;;;;;;;7.57;3.43;;;17.60;99.90;;;;;;5039568;28;20343;-66
2021/07/19 05:17:15;;;;;;;9.93;3.90;;;17.60;99.90;;;;;;5069381;28;20300;-66
2021/07/19 05:19:46;;;;;;;6.10;3.63;;;17.70;99.90;;;;;;5058928;28;20650;-66
2021/07/19 05:22:15;;;;;;;7.27;4.13;;;17.70;99.90;;;;;;5047933;28;20626;-66
2021/07/19 05:24:45;;;;;;;12.63;3.73;;;17.70;99.90;;;;;;5046716;28;20717;-66
2021/07/19 05:27:16;;;;;;;5.87;3.57;;;17.70;99.90;;;;;;5047923;28;20275;-66
2021/07/19 05:29:44;;;;;;;8.33;3.63;;;17.70;99.90;;;;;;5046023;28;20267;-67
2021/07/19 05:32:12;;;;;;;6.90;3.33;;;17.70;99.90;;;;;;5045934;28;20242;-65
2021/07/19 05:34:40;;;;;;;6.60;3.77;;;17.80;99.90;;;;;;5043872;28;20251;-66
2021/07/19 05:37:10;;;;;;;6.77;3.70;;;17.70;99.90;;;;;;5045648;28;20271;-66
2021/07/19 05:39:38;;;;;;;5.23;3.47;;;17.80;99.90;;;;;;5045241;28;20238;-66
2021/07/19 05:42:06;;;;;;;6.47;3.40;;;17.80;99.90;;;;;;5047004;28;20263;-66
2021/07/19 05:44:34;;;;;;;8.03;3.97;;;17.80;99.90;;;;;;5046383;28;20241;-67
2021/07/19 05:47:03;;;;;;;5.87;3.50;;;17.90;99.90;;;;;;5048456;28;20235;-67
2021/07/19 05:49:32;;;;;;;8.97;3.67;;;17.90;99.90;;;;;;5048307;28;20242;-66
2021/07/19 05:52:00;;;;;;;9.43;4.07;;;17.90;99.90;;;;;;5048558;28;20236;-67
2021/07/19 05:54:29;;;;;;;6.53;3.87;;;18.00;99.90;;;;;;5047067;28;20290;-67
2021/07/19 05:56:57;;;;;;;8.00;3.47;;;18.00;99.90;;;;;;5048081;28;20286;-67
2021/07/19 05:59:26;;;;;;;8.73;3.50;;;18.00;99.90;;;;;;5047745;28;20239;-66
2021/07/19 06:01:54;;;;;;;7.67;3.80;;;18.00;99.90;;;;;;5047880;28;20235;-66
2021/07/19 06:04:23;;;;;;;11.93;4.50;;;18.10;99.90;;;;;;5048192;28;20244;-66
2021/07/19 06:06:51;;;;;;;8.60;4.30;;;18.10;99.90;;;;;;5047604;28;20236;-66
2021/07/19 06:09:19;;;;;;;7.87;4.23;;;18.10;99.90;;;;;;5047738;28;20246;-66
2021/07/19 06:11:48;;;;;;;7.83;4.10;;;18.10;99.90;;;;;;5047940;28;20316;-66
2021/07/19 06:14:16;;;;;;;7.13;4.10;;;18.10;99.90;;;;;;5048075;28;20245;-67
2021/07/19 06:16:44;;;;;;;6.47;4.00;;;18.20;99.90;;;;;;5047341;28;20260;-66
2021/07/19 06:19:13;;;;;;;8.47;4.37;;;18.20;99.90;;;;;;5047611;28;20236;-66
2021/07/19 06:21:41;;;;;;;8.90;4.53;;;18.20;99.90;;;;;;5049502;28;20694;-66
2021/07/19 06:24:09;;;;;;;7.43;4.17;;;18.30;99.90;;;;;;5048630;28;20634;-66
2021/07/19 06:26:39;;;;;;;9.53;4.97;;;18.30;99.90;;;;;;5048536;28;20234;-66
2021/07/19 06:29:08;;;;;;;7.67;4.40;;;18.30;99.90;;;;;;5047716;28;20242;-66
2021/07/19 06:31:36;;;;;;;8.53;4.80;;;18.30;99.90;;;;;;5048759;28;20235;-67
2021/07/19 06:34:04;;;;;;;10.20;5.13;;;18.30;99.90;;;;;;5048716;28;20240;-66
2021/07/19 06:36:33;;;;;;;10.57;5.40;;;18.30;99.90;;;;;;5048589;28;20242;-66
2021/07/19 06:39:01;;;;;;;8.23;5.00;;;18.30;99.90;;;;;;5048665;28;20237;-66
2021/07/19 06:41:29;;;;;;;7.43;4.97;;;18.30;99.90;;;;;;5048831;28;20237;-66
2021/07/19 06:43:57;;;;;;;7.70;5.07;;;18.40;99.90;;;;;;5047907;28;20235;-66
2021/07/19 06:46:26;;;;;;;9.60;5.43;;;18.40;99.90;;;;;;5050963;28;20244;-66
2021/07/19 06:48:55;;;;;;;8.27;5.53;;;18.40;99.90;;;;;;5032009;28;20295;-66
2021/07/19 06:51:23;;;;;;;7.93;5.10;;;18.40;99.90;;;;;;5048708;28;20233;-66
2021/07/19 06:53:51;;;;;;;9.47;5.23;;;18.40;99.90;;;;;;5048363;28;20287;-67
2021/07/19 06:56:19;;;;;;;7.73;5.53;;;18.50;99.90;;;;;;5048177;28;20233;-67
2021/07/19 06:58:47;;;;;;;9.87;5.57;;;18.50;99.90;;;;;;5047471;28;20246;-67
2021/07/19 07:01:15;;;;;;;10.03;6.30;;;18.50;99.90;;;;;;5048167;28;20316;-66
2021/07/19 07:03:45;;;;;;;12.40;6.50;;;18.50;99.90;;;;;;5047678;28;20242;-67
2021/07/19 07:06:27;;;;;;;7.27;5.37;;;18.40;99.90;;;;;;5046957;28;20307;-67
2021/07/19 07:08:58;;;;;;;7.93;5.70;;;18.50;99.90;;;;;;5047429;28;20246;-67
2021/07/19 07:11:27;;;;;;;9.60;5.60;;;18.60;99.90;;;;;;5047833;28;20317;-67
2021/07/19 07:13:56;;;;;;;10.47;5.90;;;18.80;99.90;;;;;;5047766;28;20325;-67
2021/07/19 07:16:24;;;;;;;8.70;6.10;;;18.80;99.90;;;;;;5047722;28;20252;-66
2021/07/19 07:18:55;;;;;;;9.93;6.00;;;18.80;99.90;;;;;;5047631;28;20290;-67
2021/07/19 07:21:24;;;;;;;9.70;5.90;;;18.80;99.90;;;;;;5047791;28;20682;-67
2021/07/19 07:23:52;;;;;;;9.03;5.90;;;18.80;99.90;;;;;;5046937;28;20597;-67
2021/07/19 07:26:20;;;;;;;9.93;5.90;;;18.80;99.90;;;;;;5047627;28;20702;-66
2021/07/19 07:28:49;;;;;;;7.57;5.70;;;18.80;99.90;;;;;;5045187;28;20245;-66
2021/07/19 07:31:17;;;;;;;8.00;6.33;;;18.80;99.90;;;;;;5043590;28;20610;-66
2021/07/19 07:33:45;;;;;;;11.33;5.93;;;18.80;99.90;;;;;;5062035;28;20652;-66
2021/07/19 07:36:15;;;;;;;9.17;5.90;;;18.70;99.90;;;;;;5043950;28;20236;-66
2021/07/19 07:38:43;;;;;;;9.73;5.60;;;18.70;99.90;;;;;;5044049;28;20284;-66
2021/07/19 07:41:11;;;;;;;7.93;6.00;;;18.70;99.90;;;;;;5044796;28;20265;-66
2021/07/19 07:43:39;;;;;;;7.37;5.23;;;18.80;99.90;;;;;;5044576;28;20240;-66
2021/07/19 07:46:08;;;;;;;7.50;5.70;;;18.80;99.90;;;;;;5044623;28;20656;-66
2021/07/19 07:48:36;;;;;;;8.57;5.83;;;18.80;99.90;;;;;;5061445;28;20245;-67
2021/07/19 07:51:05;;;;;;;7.87;5.50;;;18.90;99.90;;;;;;5044161;28;20250;-67
2021/07/19 07:53:34;;;;;;;6.87;5.63;;;18.90;99.90;;;;;;5043844;28;20321;-66
2021/07/19 07:56:03;;;;;;;9.73;6.13;;;18.90;99.90;;;;;;5041437;28;20265;-67
2021/07/19 07:58:32;;;;;;;10.87;5.83;;;18.90;99.90;;;;;;5032636;28;20349;-66
2021/07/19 08:01:00;;;;;;;8.13;6.03;;;18.90;99.90;;;;;;5044831;28;20316;-66
2021/07/19 08:03:29;;;;;;;9.50;5.77;;;18.90;99.90;;;;;;5025290;28;20779;-67
2021/07/19 08:05:57;;;;;;;7.63;5.67;;;18.90;99.90;;;;;;5036610;28;20277;-66
2021/07/19 08:08:25;;;;;;;7.03;5.23;;;18.90;99.90;;;;;;5044543;28;20714;-67
2021/07/19 08:10:55;;;;;;;8.63;6.20;;;18.90;99.90;;;;;;5044817;28;20808;-66
2021/07/19 08:13:23;;;;;;;8.73;6.47;;;18.90;99.90;;;;;;5044698;28;20246;-66
2021/07/19 08:15:52;;;;;;;10.40;6.53;;;18.90;99.90;;;;;;5025192;28;20607;-67
2021/07/19 08:18:20;;;;;;;8.43;6.03;;;19.00;99.90;;;;;;5025092;28;20547;-66
2021/07/19 08:20:48;;;;;;;9.23;6.20;;;18.90;99.90;;;;;;5043169;28;20704;-66
2021/07/19 08:23:16;;;;;;;11.93;6.33;;;18.90;99.90;;;;;;5041577;28;20246;-67
2021/07/19 08:25:44;;;;;;;8.00;6.17;;;18.90;99.90;;;;;;5024000;28;20239;-67
2021/07/19 08:28:15;;;;;;;9.47;6.77;;;18.90;99.90;;;;;;5025516;28;20234;-66
2021/07/19 08:30:43;;;;;;;11.30;7.27;;;18.90;99.90;;;;;;5037991;28;20712;-67
2021/07/19 08:33:11;;;;;;;9.63;6.67;;;19.00;99.90;;;;;;5014359;28;20235;-66
2021/07/19 08:35:40;;;;;;;10.60;6.80;;;19.00;99.90;;;;;;5016016;28;20243;-67
2021/07/19 08:38:08;;;;;;;8.77;6.23;;;19.10;99.90;;;;;;5013054;28;20244;-67
2021/07/19 08:40:37;;;;;;;7.50;6.33;;;19.20;99.90;;;;;;5040850;28;20268;-66
2021/07/19 08:43:06;;;;;;;6.80;6.10;;;19.20;99.90;;;;;;5044077;28;20245;-66
2021/07/19 08:45:36;;;;;;;7.40;5.90;;;19.20;99.90;;;;;;5043730;28;20569;-67
2021/07/19 08:48:05;;;;;;;7.93;6.40;;;19.30;99.90;;;;;;5044528;28;20719;-66
2021/07/19 08:50:33;;;;;;;8.07;6.77;;;19.40;99.90;;;;;;5030189;28;20254;-67
2021/07/19 08:53:02;;;;;;;9.47;6.43;;;19.50;99.90;;;;;;5028484;28;20243;-67
2021/07/19 08:55:31;;;;;;;6.60;5.90;;;19.70;99.90;;;;;;5043909;28;20325;-66
2021/07/19 08:58:02;;;;;;;9.80;6.13;;;19.70;99.90;;;;;;5047513;28;20327;-67
2021/07/19 09:00:30;;;;;;;10.17;5.60;;;19.80;99.90;;;;;;5047098;28;20242;-67
2021/07/19 09:02:59;;;;;;;9.10;6.03;;;19.80;99.90;;;;;;5048107;28;20378;-67
2021/07/19 09:05:28;;;;;;;8.57;5.77;;;19.80;99.90;;;;;;5048949;28;20243;-67
2021/07/19 09:07:57;;;;;;;9.23;6.10;;;19.90;99.90;;;;;;5047801;28;20235;-67
2021/07/19 09:10:27;;;;;;;10.93;6.10;;;20.00;99.90;;;;;;5046755;28;20707;-66
2021/07/19 09:12:58;;;;;;;6.73;5.70;;;20.20;99.90;;;;;;5047895;28;20238;-67
2021/07/19 09:15:32;;;;;;;8.53;5.60;;;20.20;99.90;;;;;;5047275;28;20245;-67
2021/07/19 09:18:04;;;;;;;7.87;5.50;;;20.30;99.90;;;;;;5047542;28;20251;-67
2021/07/19 09:20:35;;;;;;;8.93;5.43;;;20.40;99.90;;;;;;5046228;28;20500;-67
2021/07/19 09:23:04;;;;;;;8.10;5.67;;;20.40;99.90;;;;;;5046381;28;20242;-66
2021/07/19 09:25:33;;;;;;;7.90;5.87;;;20.50;99.90;;;;;;5027093;28;20265;-67
2021/07/19 09:28:04;;;;;;;8.43;6.30;;;20.60;99.90;;;;;;5023731;28;20239;-67
2021/07/19 09:30:34;;;;;;;8.17;6.00;;;20.60;99.90;;;;;;5047394;28;20244;-67
2021/07/19 09:33:06;;;;;;;8.27;6.10;;;20.70;99.90;;;;;;5047152;28;20670;-67
2021/07/19 09:35:36;;;;;;;7.30;5.67;;;20.90;99.90;;;;;;5046712;28;20719;-67
2021/07/19 09:38:06;;;;;;;9.57;6.00;;;21.10;99.90;;;;;;5045551;28;20243;-67
2021/07/19 09:40:36;;;;;;;10.30;5.67;;;21.30;99.90;;;;;;5046528;28;20599;-67
2021/07/19 09:43:14;;;;;;;8.60;5.47;;;21.40;99.90;;;;;;5047370;28;20242;-67
2021/07/19 09:45:42;;;;;;;6.60;5.40;;;21.40;99.90;;;;;;5064588;28;20935;-67
2021/07/19 09:48:12;;;;;;;6.57;5.23;;;21.50;99.90;;;;;;5066981;28;20292;-67
2021/07/19 09:50:47;;;;;;;7.50;5.37;;;21.40;99.90;;;;;;5048073;28;20592;-67
2021/07/19 09:53:15;;;;;;;6.57;4.80;;;21.60;99.90;;;;;;5047193;28;20246;-67
2021/07/19 09:55:43;;;;;;;8.07;4.77;;;21.70;99.90;;;;;;5046502;28;20232;-67
2021/07/19 09:58:11;;;;;;;6.50;4.57;;;21.80;99.90;;;;;;5046458;28;20958;-67
2021/07/19 10:00:48;;;;;;;6.67;4.30;;;21.80;99.90;;;;;;5045346;28;20300;-67
2021/07/19 10:03:18;;;;;;;7.13;4.20;;;21.90;99.90;;;;;;5047014;28;20595;-67
2021/07/19 10:05:46;;;;;;;4.47;3.87;;;22.10;99.90;;;;;;5045814;28;20496;-67
2021/07/19 10:08:23;;;;;;;4.07;3.50;;;22.20;99.90;;;;;;5046238;28;20236;-67
2021/07/19 10:10:51;;;;;;;4.67;3.63;;;22.40;99.90;;;;;;5044636;28;20242;-66
2021/07/19 10:13:19;;;;;;;4.40;3.40;;;22.20;99.90;;;;;;5046010;28;20258;-67
2021/07/19 10:15:49;;;;;;;5.73;3.13;;;22.00;99.90;;;;;;5045574;28;20584;-68
2021/07/19 10:18:23;;;;;;;6.87;3.40;;;21.70;99.90;;;;;;5029619;28;20334;-67
2021/07/19 10:20:51;;;;;;;6.03;3.30;;;21.50;99.90;;;;;;5045585;28;20305;-67
2021/07/19 10:23:19;;;;;;;3.20;2.90;;;21.10;99.90;;;;;;5046137;28;20575;-67
2021/07/19 10:25:48;;;;;;;4.87;3.70;;;20.80;99.90;;;;;;5031508;28;20725;-66
2021/07/19 10:28:16;;;;;;;5.07;3.00;;;20.70;99.90;;;;;;5028031;28;20331;-67
2021/07/19 10:30:44;;;;;;;3.70;3.20;;;20.70;99.90;;;;;;5056313;28;20325;-67
2021/07/19 10:33:12;;;;;;;4.43;3.00;;;20.90;99.90;;;;;;5054416;28;20356;-68
2021/07/19 10:35:44;;;;;;;4.33;3.00;;;21.30;99.90;;;;;;5029946;28;20235;-67
2021/07/19 10:38:29;;;;;;;4.60;2.70;;;21.80;99.90;;;;;;5025448;28;20251;-68
2021/07/19 10:40:59;;;;;;;5.60;2.87;;;22.80;99.90;;;;;;5045060;28;20243;-67
2021/07/19 10:43:29;;;;;;;3.97;3.10;;;23.00;99.90;;;;;;5045537;28;20584;-67
2021/07/19 10:46:08;;;;;;;5.13;3.00;;;22.80;99.90;;;;;;5040095;28;20244;-68
2021/07/19 10:48:37;;;;;;;4.83;2.90;;;22.50;99.90;;;;;;5026357;28;20319;-67
2021/07/19 10:51:17;;;;;;;5.57;3.27;;;22.00;99.90;;;;;;5045574;28;20243;-67
2021/07/19 10:53:46;;;;;;;5.23;2.93;;;21.80;99.90;;;;;;5043857;28;20228;-67
2021/07/19 10:56:16;;;;;;;5.10;2.97;;;21.50;99.90;;;;;;5044907;28;20232;-67
2021/07/19 10:58:47;;;;;;;5.63;3.00;;;21.40;99.90;;;;;;5044327;28;20234;-67
2021/07/19 11:01:20;;;;;;;5.47;2.97;;;21.10;99.90;;;;;;5042001;28;20346;-67
2021/07/19 11:03:50;;;;;;;7.03;3.20;;;21.00;99.90;;;;;;5044538;28;20235;-67
2021/07/19 11:06:32;;;;;;;4.67;2.80;;;21.20;99.90;;;;;;5044671;28;20246;-67
2021/07/19 11:09:00;;;;;;;4.80;3.20;;;21.20;99.90;;;;;;5042080;28;20699;-67
2021/07/19 11:11:30;;;;;;;4.27;3.07;;;21.40;99.90;;;;;;5044331;28;20249;-67
2021/07/19 11:14:02;;;;;;;5.17;3.20;;;21.50;99.90;;;;;;5048701;28;20986;-67
2021/07/19 11:16:39;;;;;;;4.47;3.13;;;21.80;99.90;;;;;;5065486;28;20238;-68
2021/07/19 11:19:08;;;;;;;6.33;3.60;;;22.30;99.90;;;;;;5059467;28;20778;-67
2021/07/19 11:21:37;;;;;;;5.20;2.80;;;22.80;99.90;;;;;;5045456;28;20239;-67
2021/07/19 11:24:16;;;;;;;5.73;3.67;;;23.00;99.90;;;;;;5042107;28;20239;-67
2021/07/19 11:26:53;;;;;;;5.43;3.07;;;22.80;99.90;;;;;;5042473;28;20242;-68
2021/07/19 11:29:29;;;;;;;5.13;2.90;;;22.40;99.90;;;;;;5043263;28;20255;-67
2021/07/19 11:32:10;;;;;;;4.50;3.47;;;21.60;99.90;;;;;;5044309;28;20286;-67
2021/07/19 11:34:38;;;;;;;4.40;2.80;;;21.30;99.90;;;;;;5044567;28;20275;-67
2021/07/19 11:37:08;;;;;;;4.13;2.97;;;21.00;99.90;;;;;;5043579;28;20272;-67
2021/07/19 11:39:48;;;;;;;5.87;3.07;;;21.00;99.90;;;;;;5044657;28;20281;-67
2021/07/19 11:42:26;;;;;;;4.20;3.00;;;21.00;99.90;;;;;;5045315;28;20746;-67
2021/07/19 11:45:02;;;;;;;6.07;3.30;;;21.20;99.90;;;;;;5044245;28;20333;-67
2021/07/19 11:47:31;;;;;;;6.10;3.17;;;21.30;99.90;;;;;;5024506;28;20343;-68
2021/07/19 11:50:04;;;;;;;4.80;3.07;;;21.50;99.90;;;;;;5014930;28;20250;-67
2021/07/19 11:52:34;;;;;;;6.20;3.37;;;22.00;99.90;;;;;;5019255;28;20830;-68
2021/07/19 11:55:02;;;;;;;3.23;2.60;;;22.20;99.90;;;;;;5022754;28;20359;-68
2021/07/19 11:57:41;;;;;;;5.73;3.20;;;23.30;99.90;;;;;;5021855;28;20247;-68
2021/07/19 12:00:10;;;;;;;4.03;2.70;;;23.70;99.90;;;;;;5035531;28;20335;-68
2021/07/19 12:02:39;;;;;;;5.53;2.77;;;23.70;99.90;;;;;;5041264;28;20289;-68
2021/07/19 12:05:14;;;;;;;5.97;2.87;;;23.00;99.90;;;;;;5041303;28;20232;-67
2021/07/19 12:07:43;;;;;;;4.67;2.93;;;22.40;99.90;;;;;;5042641;28;20270;-68
2021/07/19 12:10:13;;;;;;;5.27;3.20;;;22.20;99.90;;;;;;5042172;28;20752;-68
2021/07/19 12:12:43;;;;;;;4.67;3.50;;;22.40;99.90;;;;;;5042451;28;20691;-68
2021/07/19 12:15:16;;;;;;;4.77;3.10;;;22.20;99.90;;;;;;5039638;28;20711;-67
2021/07/19 12:17:44;;;;;;;5.07;3.20;;;21.90;99.90;;;;;;5029700;28;20238;-67
2021/07/19 12:20:13;;;;;;;6.87;3.37;;;21.90;99.90;;;;;;5043436;28;20248;-66
2021/07/19 12:22:43;;;;;;;4.20;3.10;;;22.00;99.90;;;;;;5043484;28;20749;-67
2021/07/19 12:25:11;;;;;;;4.70;3.30;;;21.70;99.90;;;;;;5047120;28;20604;-67
2021/07/19 12:27:40;;;;;;;7.07;3.17;;;21.70;99.90;;;;;;5046354;28;20239;-67
2021/07/19 12:30:09;;;;;;;5.10;3.17;;;21.70;99.90;;;;;;5044476;28;20241;-67
2021/07/19 12:32:40;;;;;;;6.57;2.80;;;21.50;99.90;;;;;;5046119;28;20331;-67
2021/07/19 12:35:10;;;;;;;4.17;3.00;;;21.60;99.90;;;;;;5046063;28;20645;-67
2021/07/19 12:37:38;;;;;;;5.53;3.37;;;22.00;99.90;;;;;;5046371;28;20553;-67
2021/07/19 12:40:09;;;;;;;4.47;3.03;;;21.90;99.90;;;;;;5046303;28;20308;-67
2021/07/19 12:42:38;;;;;;;5.57;2.77;;;21.80;99.90;;;;;;5046173;28;20255;-67
2021/07/19 12:45:07;;;;;;;3.63;3.03;;;21.70;99.90;;;;;;5046078;28;20242;-67
2021/07/19 12:47:35;;;;;;;5.40;2.90;;;21.80;99.90;;;;;;5045685;28;20726;-67
2021/07/19 12:50:05;;;;;;;5.13;3.03;;;21.80;99.90;;;;;;5045508;28;20235;-68
2021/07/19 12:52:35;;;;;;;4.77;2.93;;;21.80;99.90;;;;;;5045760;28;20661;-67
2021/07/19 12:55:24;;;;;;;4.23;3.07;;;22.10;99.90;;;;;;5040434;28;20353;-66
2021/07/19 12:57:54;;;;;;;3.60;2.70;;;22.30;99.90;;;;;;5036966;28;20288;-67
2021/07/19 13:00:26;;;;;;;8.83;3.37;;;22.50;99.90;;;;;;5036538;28;20238;-67
2021/07/19 13:03:03;;;;;;;4.13;3.03;;;22.60;99.90;;;;;;5037583;28;20663;-67
2021/07/19 13:05:32;;;;;;;6.80;3.03;;;22.80;99.90;;;;;;5035373;28;20240;-67